sensor_id;sensor_type;location;lat;lon;timestamp;temperature;humidity
21682;DHT22;11002;48.256;10.084;2022-11-20T00:01:33;17.40;35.80
21682;DHT22;11002;48.256;10.084;2022-11-20T00:04:01;17.40;35.80
21682;DHT22;11002;48.256;10.084;2022-11-20T00:06:29;17.40;35.70
21682;DHT22;11002;48.256;10.084;2022-11-20T00:08:58;17.40;35.80
21682;DHT22;11002;48.256;10.084;2022-11-20T00:11:28;17.40;35.80
21682;DHT22;11002;48.256;10.084;2022-11-20T00:13:57;17.40;35.70
21682;DHT22;11002;48.256;10.084;2022-11-20T00:16:26;17.30;35.80
21682;DHT22;11002;48.256;10.084;2022-11-20T00:18:54;17.30;35.60
21682;DHT22;11002;48.256;10.084;2022-11-20T00:21:23;17.40;35.70
21682;DHT22;11002;48.256;10.084;2022-11-20T00:23:54;17.30;35.70
21682;DHT22;11002;48.256;10.084;2022-11-20T00:26:22;17.30;35.70
21682;DHT22;11002;48.256;10.084;2022-11-20T00:28:52;17.30;35.60
21682;DHT22;11002;48.256;10.084;2022-11-20T00:31:20;17.30;35.70
21682;DHT22;11002;48.256;10.084;2022-11-20T00:33:48;17.30;35.60
21682;DHT22;11002;48.256;10.084;2022-11-20T00:36:16;17.30;35.60
21682;DHT22;11002;48.256;10.084;2022-11-20T00:38:44;17.30;35.70
21682;DHT22;11002;48.256;10.084;2022-11-20T00:41:15;17.30;35.60
21682;DHT22;11002;48.256;10.084;2022-11-20T00:43:43;17.30;35.60
21682;DHT22;11002;48.256;10.084;2022-11-20T00:46:13;17.30;35.60
21682;DHT22;11002;48.256;10.084;2022-11-20T00:48:40;17.30;35.60
21682;DHT22;11002;48.256;10.084;2022-11-20T00:51:08;17.30;35.60
21682;DHT22;11002;48.256;10.084;2022-11-20T00:53:36;17.30;35.70
21682;DHT22;11002;48.256;10.084;2022-11-20T00:56:07;17.30;35.60
21682;DHT22;11002;48.256;10.084;2022-11-20T00:58:38;17.30;35.60
21682;DHT22;11002;48.256;10.084;2022-11-20T01:01:08;17.30;35.70
21682;DHT22;11002;48.256;10.084;2022-11-20T01:03:37;17.30;35.60
21682;DHT22;11002;48.256;10.084;2022-11-20T01:06:06;17.30;35.60
21682;DHT22;11002;48.256;10.084;2022-11-20T01:08:35;17.30;35.60
21682;DHT22;11002;48.256;10.084;2022-11-20T01:11:04;17.30;35.60
21682;DHT22;11002;48.256;10.084;2022-11-20T01:13:32;17.30;36.40
21682;DHT22;11002;48.256;10.084;2022-11-20T01:16:10;17.30;35.60
21682;DHT22;11002;48.256;10.084;2022-11-20T01:18:39;17.30;35.60
21682;DHT22;11002;48.256;10.084;2022-11-20T01:21:08;17.30;35.60
21682;DHT22;11002;48.256;10.084;2022-11-20T01:23:36;17.30;35.60
21682;DHT22;11002;48.256;10.084;2022-11-20T01:26:06;17.30;35.60
21682;DHT22;11002;48.256;10.084;2022-11-20T01:28:34;17.30;35.60
21682;DHT22;11002;48.256;10.084;2022-11-20T01:31:02;17.30;35.50
21682;DHT22;11002;48.256;10.084;2022-11-20T01:33:39;17.30;35.60
21682;DHT22;11002;48.256;10.084;2022-11-20T01:36:08;17.30;35.60
21682;DHT22;11002;48.256;10.084;2022-11-20T01:38:35;17.30;35.60
21682;DHT22;11002;48.256;10.084;2022-11-20T01:41:03;17.30;35.60
21682;DHT22;11002;48.256;10.084;2022-11-20T01:43:31;17.30;35.60
21682;DHT22;11002;48.256;10.084;2022-11-20T01:46:05;17.30;35.60
21682;DHT22;11002;48.256;10.084;2022-11-20T01:48:34;17.30;35.60
21682;DHT22;11002;48.256;10.084;2022-11-20T01:51:09;17.30;35.60
21682;DHT22;11002;48.256;10.084;2022-11-20T01:53:39;17.30;35.50
21682;DHT22;11002;48.256;10.084;2022-11-20T01:56:10;17.30;35.50
21682;DHT22;11002;48.256;10.084;2022-11-20T01:58:43;17.30;35.60
21682;DHT22;11002;48.256;10.084;2022-11-20T02:01:12;17.30;35.60
21682;DHT22;11002;48.256;10.084;2022-11-20T02:03:40;17.30;35.60
21682;DHT22;11002;48.256;10.084;2022-11-20T02:06:14;17.30;35.60
21682;DHT22;11002;48.256;10.084;2022-11-20T02:08:44;17.30;35.60
21682;DHT22;11002;48.256;10.084;2022-11-20T02:11:11;17.30;35.60
21682;DHT22;11002;48.256;10.084;2022-11-20T02:13:40;17.30;35.60
21682;DHT22;11002;48.256;10.084;2022-11-20T02:16:13;17.30;35.60
21682;DHT22;11002;48.256;10.084;2022-11-20T02:18:41;17.30;35.60
21682;DHT22;11002;48.256;10.084;2022-11-20T02:21:17;17.30;35.60
21682;DHT22;11002;48.256;10.084;2022-11-20T02:24:15;17.30;35.60
21682;DHT22;11002;48.256;10.084;2022-11-20T02:26:47;17.30;35.60
21682;DHT22;11002;48.256;10.084;2022-11-20T02:29:16;17.30;35.60
21682;DHT22;11002;48.256;10.084;2022-11-20T02:31:46;17.30;35.60
21682;DHT22;11002;48.256;10.084;2022-11-20T02:34:13;17.30;35.60
21682;DHT22;11002;48.256;10.084;2022-11-20T02:36:41;17.30;35.60
21682;DHT22;11002;48.256;10.084;2022-11-20T02:39:11;17.20;35.50
21682;DHT22;11002;48.256;10.084;2022-11-20T02:41:43;17.30;35.60
21682;DHT22;11002;48.256;10.084;2022-11-20T02:44:11;17.30;35.60
21682;DHT22;11002;48.256;10.084;2022-11-20T02:46:39;17.30;35.60
21682;DHT22;11002;48.256;10.084;2022-11-20T02:49:06;17.30;35.60
21682;DHT22;11002;48.256;10.084;2022-11-20T02:51:33;17.30;35.60
21682;DHT22;11002;48.256;10.084;2022-11-20T02:54:00;17.20;35.40
21682;DHT22;11002;48.256;10.084;2022-11-20T02:56:28;17.20;35.60
21682;DHT22;11002;48.256;10.084;2022-11-20T02:58:57;17.30;35.60
21682;DHT22;11002;48.256;10.084;2022-11-20T03:01:24;17.30;35.60
21682;DHT22;11002;48.256;10.084;2022-11-20T03:03:52;17.20;35.50
21682;DHT22;11002;48.256;10.084;2022-11-20T03:06:20;17.30;35.60
21682;DHT22;11002;48.256;10.084;2022-11-20T03:08:48;17.20;35.50
21682;DHT22;11002;48.256;10.084;2022-11-20T03:11:15;17.20;35.40
21682;DHT22;11002;48.256;10.084;2022-11-20T03:13:43;17.20;35.50
21682;DHT22;11002;48.256;10.084;2022-11-20T03:16:13;17.20;35.60
21682;DHT22;11002;48.256;10.084;2022-11-20T03:18:42;17.20;35.50
21682;DHT22;11002;48.256;10.084;2022-11-20T03:21:10;17.20;35.50
21682;DHT22;11002;48.256;10.084;2022-11-20T03:23:38;17.20;35.50
21682;DHT22;11002;48.256;10.084;2022-11-20T03:26:11;17.20;35.50
21682;DHT22;11002;48.256;10.084;2022-11-20T03:28:39;17.20;35.50
21682;DHT22;11002;48.256;10.084;2022-11-20T03:31:09;17.20;35.50
21682;DHT22;11002;48.256;10.084;2022-11-20T03:33:38;17.20;35.50
21682;DHT22;11002;48.256;10.084;2022-11-20T03:36:07;17.30;35.60
21682;DHT22;11002;48.256;10.084;2022-11-20T03:38:35;17.20;35.40
21682;DHT22;11002;48.256;10.084;2022-11-20T03:41:05;17.20;35.40
21682;DHT22;11002;48.256;10.084;2022-11-20T03:43:33;17.20;35.40
21682;DHT22;11002;48.256;10.084;2022-11-20T03:46:01;17.20;35.50
21682;DHT22;11002;48.256;10.084;2022-11-20T03:48:28;17.20;35.40
21682;DHT22;11002;48.256;10.084;2022-11-20T03:51:08;17.20;35.50
21682;DHT22;11002;48.256;10.084;2022-11-20T03:53:35;17.20;35.50
21682;DHT22;11002;48.256;10.084;2022-11-20T03:56:03;17.20;35.40
21682;DHT22;11002;48.256;10.084;2022-11-20T03:58:32;17.20;35.40
21682;DHT22;11002;48.256;10.084;2022-11-20T04:01:04;17.20;35.40
21682;DHT22;11002;48.256;10.084;2022-11-20T04:03:32;17.20;35.40
21682;DHT22;11002;48.256;10.084;2022-11-20T04:06:02;17.20;35.50
21682;DHT22;11002;48.256;10.084;2022-11-20T04:08:31;17.20;35.50
21682;DHT22;11002;48.256;10.084;2022-11-20T04:11:11;17.20;35.40
21682;DHT22;11002;48.256;10.084;2022-11-20T04:13:39;17.20;35.40
21682;DHT22;11002;48.256;10.084;2022-11-20T04:16:08;17.20;35.40
21682;DHT22;11002;48.256;10.084;2022-11-20T04:18:36;17.20;35.40
21682;DHT22;11002;48.256;10.084;2022-11-20T04:21:04;17.20;35.40
21682;DHT22;11002;48.256;10.084;2022-11-20T04:23:33;17.20;35.40
21682;DHT22;11002;48.256;10.084;2022-11-20T04:26:02;17.20;35.40
21682;DHT22;11002;48.256;10.084;2022-11-20T04:28:29;17.20;35.40
21682;DHT22;11002;48.256;10.084;2022-11-20T04:31:02;17.20;35.50
21682;DHT22;11002;48.256;10.084;2022-11-20T04:33:30;17.20;35.40
21682;DHT22;11002;48.256;10.084;2022-11-20T04:36:01;17.20;35.40
21682;DHT22;11002;48.256;10.084;2022-11-20T04:38:29;17.20;35.40
21682;DHT22;11002;48.256;10.084;2022-11-20T04:40:59;17.20;35.40
21682;DHT22;11002;48.256;10.084;2022-11-20T04:43:27;17.20;35.40
21682;DHT22;11002;48.256;10.084;2022-11-20T04:45:55;17.20;35.40
21682;DHT22;11002;48.256;10.084;2022-11-20T04:48:22;17.20;35.40
21682;DHT22;11002;48.256;10.084;2022-11-20T04:50:50;17.20;35.40
21682;DHT22;11002;48.256;10.084;2022-11-20T04:53:18;17.20;35.50
21682;DHT22;11002;48.256;10.084;2022-11-20T04:55:45;17.20;35.40
21682;DHT22;11002;48.256;10.084;2022-11-20T04:58:14;17.20;35.50
21682;DHT22;11002;48.256;10.084;2022-11-20T05:00:42;17.20;35.50
21682;DHT22;11002;48.256;10.084;2022-11-20T05:03:09;17.20;35.40
21682;DHT22;11002;48.256;10.084;2022-11-20T05:05:36;17.20;35.40
21682;DHT22;11002;48.256;10.084;2022-11-20T05:08:04;17.20;35.40
21682;DHT22;11002;48.256;10.084;2022-11-20T05:10:31;17.20;35.40
21682;DHT22;11002;48.256;10.084;2022-11-20T05:12:58;17.20;35.40
21682;DHT22;11002;48.256;10.084;2022-11-20T05:15:27;17.20;35.40
21682;DHT22;11002;48.256;10.084;2022-11-20T05:17:54;17.20;35.40
21682;DHT22;11002;48.256;10.084;2022-11-20T05:20:22;17.20;35.40
21682;DHT22;11002;48.256;10.084;2022-11-20T05:22:49;17.20;35.40
21682;DHT22;11002;48.256;10.084;2022-11-20T05:25:16;17.20;35.40
21682;DHT22;11002;48.256;10.084;2022-11-20T05:27:44;17.10;36.10
21682;DHT22;11002;48.256;10.084;2022-11-20T05:30:12;17.10;35.30
21682;DHT22;11002;48.256;10.084;2022-11-20T05:32:41;17.20;35.40
21682;DHT22;11002;48.256;10.084;2022-11-20T05:35:08;17.20;35.40
21682;DHT22;11002;48.256;10.084;2022-11-20T05:37:36;17.20;35.40
21682;DHT22;11002;48.256;10.084;2022-11-20T05:40:04;17.10;35.30
21682;DHT22;11002;48.256;10.084;2022-11-20T05:42:31;17.20;35.40
21682;DHT22;11002;48.256;10.084;2022-11-20T05:44:59;17.20;35.40
21682;DHT22;11002;48.256;10.084;2022-11-20T05:47:30;17.10;35.30
21682;DHT22;11002;48.256;10.084;2022-11-20T05:49:59;17.20;35.40
21682;DHT22;11002;48.256;10.084;2022-11-20T05:52:28;17.20;35.40
21682;DHT22;11002;48.256;10.084;2022-11-20T05:54:56;17.20;35.30
21682;DHT22;11002;48.256;10.084;2022-11-20T05:57:32;17.20;35.50
21682;DHT22;11002;48.256;10.084;2022-11-20T05:59:59;17.20;35.40
21682;DHT22;11002;48.256;10.084;2022-11-20T06:02:26;17.10;35.30
21682;DHT22;11002;48.256;10.084;2022-11-20T06:04:54;17.20;35.40
21682;DHT22;11002;48.256;10.084;2022-11-20T06:07:22;17.20;35.40
21682;DHT22;11002;48.256;10.084;2022-11-20T06:09:50;17.20;35.40
21682;DHT22;11002;48.256;10.084;2022-11-20T06:12:17;17.20;35.30
21682;DHT22;11002;48.256;10.084;2022-11-20T06:14:44;17.20;35.30
21682;DHT22;11002;48.256;10.084;2022-11-20T06:17:12;17.20;35.30
21682;DHT22;11002;48.256;10.084;2022-11-20T06:19:40;17.20;35.30
21682;DHT22;11002;48.256;10.084;2022-11-20T06:22:07;17.20;35.30
21682;DHT22;11002;48.256;10.084;2022-11-20T06:24:36;17.20;35.30
21682;DHT22;11002;48.256;10.084;2022-11-20T06:27:03;17.20;35.30
21682;DHT22;11002;48.256;10.084;2022-11-20T06:29:30;17.20;35.20
21682;DHT22;11002;48.256;10.084;2022-11-20T06:31:58;17.20;35.20
21682;DHT22;11002;48.256;10.084;2022-11-20T06:34:25;17.20;35.20
21682;DHT22;11002;48.256;10.084;2022-11-20T06:36:53;17.20;35.10
21682;DHT22;11002;48.256;10.084;2022-11-20T06:39:20;17.20;35.10
21682;DHT22;11002;48.256;10.084;2022-11-20T06:41:54;17.20;35.10
21682;DHT22;11002;48.256;10.084;2022-11-20T06:44:21;17.20;35.00
21682;DHT22;11002;48.256;10.084;2022-11-20T06:46:48;17.20;35.00
21682;DHT22;11002;48.256;10.084;2022-11-20T06:49:16;17.20;35.00
21682;DHT22;11002;48.256;10.084;2022-11-20T06:51:46;17.20;34.90
21682;DHT22;11002;48.256;10.084;2022-11-20T06:54:13;17.20;34.90
21682;DHT22;11002;48.256;10.084;2022-11-20T06:56:42;17.20;34.90
21682;DHT22;11002;48.256;10.084;2022-11-20T06:59:16;17.20;35.00
21682;DHT22;11002;48.256;10.084;2022-11-20T07:01:43;17.20;35.00
21682;DHT22;11002;48.256;10.084;2022-11-20T07:04:11;17.20;34.90
21682;DHT22;11002;48.256;10.084;2022-11-20T07:06:38;17.20;35.00
21682;DHT22;11002;48.256;10.084;2022-11-20T07:09:07;17.20;35.00
21682;DHT22;11002;48.256;10.084;2022-11-20T07:11:34;17.20;35.00
21682;DHT22;11002;48.256;10.084;2022-11-20T07:14:05;17.20;35.00
21682;DHT22;11002;48.256;10.084;2022-11-20T07:16:33;17.20;35.00
21682;DHT22;11002;48.256;10.084;2022-11-20T07:19:01;17.20;35.00
21682;DHT22;11002;48.256;10.084;2022-11-20T07:21:28;17.20;35.00
21682;DHT22;11002;48.256;10.084;2022-11-20T07:23:55;17.20;35.00
21682;DHT22;11002;48.256;10.084;2022-11-20T07:26:23;17.20;35.00
21682;DHT22;11002;48.256;10.084;2022-11-20T07:28:50;17.20;35.70
21682;DHT22;11002;48.256;10.084;2022-11-20T07:31:17;17.20;34.90
21682;DHT22;11002;48.256;10.084;2022-11-20T07:33:46;17.20;35.00
21682;DHT22;11002;48.256;10.084;2022-11-20T07:36:14;17.20;35.00
21682;DHT22;11002;48.256;10.084;2022-11-20T07:38:41;17.20;35.00
21682;DHT22;11002;48.256;10.084;2022-11-20T07:41:11;17.20;35.00
21682;DHT22;11002;48.256;10.084;2022-11-20T07:43:39;17.20;34.90
21682;DHT22;11002;48.256;10.084;2022-11-20T07:46:06;17.20;34.90
21682;DHT22;11002;48.256;10.084;2022-11-20T07:48:33;17.20;34.80
21682;DHT22;11002;48.256;10.084;2022-11-20T07:51:02;17.20;34.80
21682;DHT22;11002;48.256;10.084;2022-11-20T07:53:30;17.20;34.80
21682;DHT22;11002;48.256;10.084;2022-11-20T07:55:59;17.20;34.80
21682;DHT22;11002;48.256;10.084;2022-11-20T07:58:29;17.20;34.80
21682;DHT22;11002;48.256;10.084;2022-11-20T08:01:02;17.20;34.90
21682;DHT22;11002;48.256;10.084;2022-11-20T08:03:29;17.20;34.90
21682;DHT22;11002;48.256;10.084;2022-11-20T08:05:58;17.20;34.80
21682;DHT22;11002;48.256;10.084;2022-11-20T08:08:27;17.20;34.80
21682;DHT22;11002;48.256;10.084;2022-11-20T08:10:56;17.20;34.80
21682;DHT22;11002;48.256;10.084;2022-11-20T08:13:45;17.20;34.80
21682;DHT22;11002;48.256;10.084;2022-11-20T08:16:29;17.20;34.70
21682;DHT22;11002;48.256;10.084;2022-11-20T08:18:57;17.20;34.70
21682;DHT22;11002;48.256;10.084;2022-11-20T08:21:24;17.20;34.80
21682;DHT22;11002;48.256;10.084;2022-11-20T08:23:53;17.20;34.80
21682;DHT22;11002;48.256;10.084;2022-11-20T08:26:21;17.20;34.80
21682;DHT22;11002;48.256;10.084;2022-11-20T08:28:49;17.20;34.80
21682;DHT22;11002;48.256;10.084;2022-11-20T08:31:16;17.20;34.80
21682;DHT22;11002;48.256;10.084;2022-11-20T08:33:43;17.30;34.90
21682;DHT22;11002;48.256;10.084;2022-11-20T08:36:11;17.20;34.80
21682;DHT22;11002;48.256;10.084;2022-11-20T08:38:38;17.30;34.90
21682;DHT22;11002;48.256;10.084;2022-11-20T08:41:07;17.20;34.80
21682;DHT22;11002;48.256;10.084;2022-11-20T08:43:55;17.20;34.80
21682;DHT22;11002;48.256;10.084;2022-11-20T08:46:24;17.20;34.80
21682;DHT22;11002;48.256;10.084;2022-11-20T08:48:52;17.20;34.80
21682;DHT22;11002;48.256;10.084;2022-11-20T08:51:23;17.20;34.70
21682;DHT22;11002;48.256;10.084;2022-11-20T08:53:50;17.30;34.90
21682;DHT22;11002;48.256;10.084;2022-11-20T08:56:19;17.20;34.70
21682;DHT22;11002;48.256;10.084;2022-11-20T08:58:47;17.20;34.70
21682;DHT22;11002;48.256;10.084;2022-11-20T09:01:14;17.30;34.80
21682;DHT22;11002;48.256;10.084;2022-11-20T09:03:41;17.20;34.70
21682;DHT22;11002;48.256;10.084;2022-11-20T09:06:09;17.20;34.70
21682;DHT22;11002;48.256;10.084;2022-11-20T09:08:36;17.30;34.90
21682;DHT22;11002;48.256;10.084;2022-11-20T09:11:04;17.20;34.70
21682;DHT22;11002;48.256;10.084;2022-11-20T09:13:33;17.20;34.70
21682;DHT22;11002;48.256;10.084;2022-11-20T09:16:02;17.20;34.70
21682;DHT22;11002;48.256;10.084;2022-11-20T09:18:31;17.20;34.60
21682;DHT22;11002;48.256;10.084;2022-11-20T09:20:59;17.20;34.60
21682;DHT22;11002;48.256;10.084;2022-11-20T09:23:30;17.30;34.70
21682;DHT22;11002;48.256;10.084;2022-11-20T09:25:58;17.30;34.70
21682;DHT22;11002;48.256;10.084;2022-11-20T09:28:25;17.30;34.70
21682;DHT22;11002;48.256;10.084;2022-11-20T09:30:54;17.30;34.70
21682;DHT22;11002;48.256;10.084;2022-11-20T09:33:21;17.30;34.70
21682;DHT22;11002;48.256;10.084;2022-11-20T09:35:49;17.30;34.70
21682;DHT22;11002;48.256;10.084;2022-11-20T09:38:16;17.30;34.70
21682;DHT22;11002;48.256;10.084;2022-11-20T09:40:47;17.30;34.60
21682;DHT22;11002;48.256;10.084;2022-11-20T09:43:19;17.30;34.60
21682;DHT22;11002;48.256;10.084;2022-11-20T09:46:04;17.30;34.60
21682;DHT22;11002;48.256;10.084;2022-11-20T09:48:47;17.30;34.50
21682;DHT22;11002;48.256;10.084;2022-11-20T09:51:25;17.30;34.60
21682;DHT22;11002;48.256;10.084;2022-11-20T09:54:10;17.30;34.60
21682;DHT22;11002;48.256;10.084;2022-11-20T09:56:42;17.30;34.60
21682;DHT22;11002;48.256;10.084;2022-11-20T09:59:32;17.30;34.60
21682;DHT22;11002;48.256;10.084;2022-11-20T10:02:08;17.30;34.60
21682;DHT22;11002;48.256;10.084;2022-11-20T10:04:44;17.30;34.60
21682;DHT22;11002;48.256;10.084;2022-11-20T10:07:15;17.30;34.60
21682;DHT22;11002;48.256;10.084;2022-11-20T10:09:50;17.30;34.50
21682;DHT22;11002;48.256;10.084;2022-11-20T10:12:23;17.30;34.60
21682;DHT22;11002;48.256;10.084;2022-11-20T10:15:00;17.30;34.60
21682;DHT22;11002;48.256;10.084;2022-11-20T10:17:47;17.20;34.60
21682;DHT22;11002;48.256;10.084;2022-11-20T10:20:23;17.30;34.60
21682;DHT22;11002;48.256;10.084;2022-11-20T10:23:06;17.30;35.30
21682;DHT22;11002;48.256;10.084;2022-11-20T10:25:38;17.30;34.70
21682;DHT22;11002;48.256;10.084;2022-11-20T10:28:24;17.30;34.60
21682;DHT22;11002;48.256;10.084;2022-11-20T10:30:59;17.30;34.70
21682;DHT22;11002;48.256;10.084;2022-11-20T10:33:32;17.30;34.70
21682;DHT22;11002;48.256;10.084;2022-11-20T10:36:08;17.30;34.70
21682;DHT22;11002;48.256;10.084;2022-11-20T10:38:40;17.30;34.70
21682;DHT22;11002;48.256;10.084;2022-11-20T10:41:15;17.30;34.80
21682;DHT22;11002;48.256;10.084;2022-11-20T10:43:56;17.20;34.70
21682;DHT22;11002;48.256;10.084;2022-11-20T10:46:34;17.30;34.80
21682;DHT22;11002;48.256;10.084;2022-11-20T10:49:23;17.30;34.90
21682;DHT22;11002;48.256;10.084;2022-11-20T10:52:01;17.20;34.70
21682;DHT22;11002;48.256;10.084;2022-11-20T10:54:38;17.30;34.80
21682;DHT22;11002;48.256;10.084;2022-11-20T10:57:22;17.20;34.80
21682;DHT22;11002;48.256;10.084;2022-11-20T11:00:00;17.30;34.90
21682;DHT22;11002;48.256;10.084;2022-11-20T11:02:35;17.20;34.80
21682;DHT22;11002;48.256;10.084;2022-11-20T11:05:13;17.20;34.80
21682;DHT22;11002;48.256;10.084;2022-11-20T11:07:42;17.20;34.70
21682;DHT22;11002;48.256;10.084;2022-11-20T11:10:16;17.20;34.80
21682;DHT22;11002;48.256;10.084;2022-11-20T11:12:45;17.20;34.80
21682;DHT22;11002;48.256;10.084;2022-11-20T11:15:24;17.20;34.80
21682;DHT22;11002;48.256;10.084;2022-11-20T11:17:52;17.20;34.80
21682;DHT22;11002;48.256;10.084;2022-11-20T11:20:22;17.20;35.60
21682;DHT22;11002;48.256;10.084;2022-11-20T11:22:51;17.20;34.90
21682;DHT22;11002;48.256;10.084;2022-11-20T11:25:25;17.20;34.90
21682;DHT22;11002;48.256;10.084;2022-11-20T11:27:54;17.20;35.00
21682;DHT22;11002;48.256;10.084;2022-11-20T11:30:23;17.20;35.00
21682;DHT22;11002;48.256;10.084;2022-11-20T11:33:03;17.20;35.00
21682;DHT22;11002;48.256;10.084;2022-11-20T11:35:33;17.20;35.00
21682;DHT22;11002;48.256;10.084;2022-11-20T11:38:06;17.20;35.00
21682;DHT22;11002;48.256;10.084;2022-11-20T11:40:36;17.20;35.10
21682;DHT22;11002;48.256;10.084;2022-11-20T11:43:15;17.20;35.00
21682;DHT22;11002;48.256;10.084;2022-11-20T11:46:06;17.20;35.00
21682;DHT22;11002;48.256;10.084;2022-11-20T11:48:36;17.20;35.00
21682;DHT22;11002;48.256;10.084;2022-11-20T11:51:08;17.20;35.00
21682;DHT22;11002;48.256;10.084;2022-11-20T11:53:41;17.20;35.10
21682;DHT22;11002;48.256;10.084;2022-11-20T11:56:11;17.20;35.10
21682;DHT22;11002;48.256;10.084;2022-11-20T11:58:44;17.20;35.10
21682;DHT22;11002;48.256;10.084;2022-11-20T12:01:22;17.20;35.10
21682;DHT22;11002;48.256;10.084;2022-11-20T12:03:58;17.20;35.20
21682;DHT22;11002;48.256;10.084;2022-11-20T12:06:30;17.20;35.10
21682;DHT22;11002;48.256;10.084;2022-11-20T12:09:02;17.20;35.30
21682;DHT22;11002;48.256;10.084;2022-11-20T12:11:33;17.20;35.20
21682;DHT22;11002;48.256;10.084;2022-11-20T12:14:09;17.20;35.30
21682;DHT22;11002;48.256;10.084;2022-11-20T12:16:39;17.20;35.30
21682;DHT22;11002;48.256;10.084;2022-11-20T12:19:10;17.20;35.20
21682;DHT22;11002;48.256;10.084;2022-11-20T12:21:50;17.20;35.30
21682;DHT22;11002;48.256;10.084;2022-11-20T12:24:35;17.20;35.30
21682;DHT22;11002;48.256;10.084;2022-11-20T12:27:21;17.20;35.30
21682;DHT22;11002;48.256;10.084;2022-11-20T12:30:02;17.20;35.30
21682;DHT22;11002;48.256;10.084;2022-11-20T12:35:48;17.20;35.30
21682;DHT22;11002;48.256;10.084;2022-11-20T12:38:42;17.20;35.30
21682;DHT22;11002;48.256;10.084;2022-11-20T12:41:18;17.20;35.30
21682;DHT22;11002;48.256;10.084;2022-11-20T12:44:16;17.20;35.40
21682;DHT22;11002;48.256;10.084;2022-11-20T12:47:16;17.20;35.30
21682;DHT22;11002;48.256;10.084;2022-11-20T12:49:50;17.20;35.30
21682;DHT22;11002;48.256;10.084;2022-11-20T12:52:29;17.20;35.40
21682;DHT22;11002;48.256;10.084;2022-11-20T12:58:05;17.20;35.40
21682;DHT22;11002;48.256;10.084;2022-11-20T13:00:37;17.20;35.30
21682;DHT22;11002;48.256;10.084;2022-11-20T13:06:16;17.20;35.40
21682;DHT22;11002;48.256;10.084;2022-11-20T13:08:49;17.20;35.40
21682;DHT22;11002;48.256;10.084;2022-11-20T13:11:26;17.20;35.40
21682;DHT22;11002;48.256;10.084;2022-11-20T13:14:14;17.20;35.40
21682;DHT22;11002;48.256;10.084;2022-11-20T13:16:50;17.20;35.40
21682;DHT22;11002;48.256;10.084;2022-11-20T13:19:19;17.20;35.40
21682;DHT22;11002;48.256;10.084;2022-11-20T13:21:48;17.20;35.40
21682;DHT22;11002;48.256;10.084;2022-11-20T13:24:25;17.20;35.40
21682;DHT22;11002;48.256;10.084;2022-11-20T13:27:05;17.20;35.50
21682;DHT22;11002;48.256;10.084;2022-11-20T13:29:47;17.20;35.50
21682;DHT22;11002;48.256;10.084;2022-11-20T13:32:26;17.20;35.50
21682;DHT22;11002;48.256;10.084;2022-11-20T13:35:00;17.20;35.40
21682;DHT22;11002;48.256;10.084;2022-11-20T13:37:31;17.20;35.40
21682;DHT22;11002;48.256;10.084;2022-11-20T13:40:11;17.20;35.40
21682;DHT22;11002;48.256;10.084;2022-11-20T13:42:44;17.20;35.50
21682;DHT22;11002;48.256;10.084;2022-11-20T13:45:23;17.20;35.50
21682;DHT22;11002;48.256;10.084;2022-11-20T13:47:52;17.20;35.40
21682;DHT22;11002;48.256;10.084;2022-11-20T13:50:31;17.20;35.40
21682;DHT22;11002;48.256;10.084;2022-11-20T13:53:14;17.20;35.40
21682;DHT22;11002;48.256;10.084;2022-11-20T13:55:50;17.20;35.40
21682;DHT22;11002;48.256;10.084;2022-11-20T13:58:31;17.20;35.40
21682;DHT22;11002;48.256;10.084;2022-11-20T14:01:09;17.20;35.40
21682;DHT22;11002;48.256;10.084;2022-11-20T14:03:38;17.20;35.40
21682;DHT22;11002;48.256;10.084;2022-11-20T14:06:11;17.20;35.40
21682;DHT22;11002;48.256;10.084;2022-11-20T14:08:42;17.20;35.40
21682;DHT22;11002;48.256;10.084;2022-11-20T14:11:17;17.20;35.40
21682;DHT22;11002;48.256;10.084;2022-11-20T14:13:58;17.20;35.40
21682;DHT22;11002;48.256;10.084;2022-11-20T14:16:27;17.20;35.40
21682;DHT22;11002;48.256;10.084;2022-11-20T14:18:56;17.20;35.40
21682;DHT22;11002;48.256;10.084;2022-11-20T14:21:26;17.20;35.40
21682;DHT22;11002;48.256;10.084;2022-11-20T14:24:02;17.20;35.40
21682;DHT22;11002;48.256;10.084;2022-11-20T14:26:30;17.20;35.50
21682;DHT22;11002;48.256;10.084;2022-11-20T14:28:59;17.20;35.40
21682;DHT22;11002;48.256;10.084;2022-11-20T14:31:27;17.20;35.50
21682;DHT22;11002;48.256;10.084;2022-11-20T14:33:55;17.20;35.50
21682;DHT22;11002;48.256;10.084;2022-11-20T14:36:24;17.20;35.60
21682;DHT22;11002;48.256;10.084;2022-11-20T14:38:53;17.20;35.60
21682;DHT22;11002;48.256;10.084;2022-11-20T14:41:22;17.20;36.30
21682;DHT22;11002;48.256;10.084;2022-11-20T14:43:53;17.20;35.60
21682;DHT22;11002;48.256;10.084;2022-11-20T14:46:23;17.20;35.60
21682;DHT22;11002;48.256;10.084;2022-11-20T14:48:53;17.30;35.70
21682;DHT22;11002;48.256;10.084;2022-11-20T14:51:28;17.20;35.70
21682;DHT22;11002;48.256;10.084;2022-11-20T14:54:07;17.20;36.40
21682;DHT22;11002;48.256;10.084;2022-11-20T14:56:34;17.20;35.70
21682;DHT22;11002;48.256;10.084;2022-11-20T14:59:02;17.20;36.40
21682;DHT22;11002;48.256;10.084;2022-11-20T15:01:32;17.20;35.70
21682;DHT22;11002;48.256;10.084;2022-11-20T15:04:01;17.20;35.70
21682;DHT22;11002;48.256;10.084;2022-11-20T15:06:29;17.30;35.80
21682;DHT22;11002;48.256;10.084;2022-11-20T15:08:57;17.30;36.50
21682;DHT22;11002;48.256;10.084;2022-11-20T15:11:29;17.30;35.80
21682;DHT22;11002;48.256;10.084;2022-11-20T15:14:01;17.20;35.70
21682;DHT22;11002;48.256;10.084;2022-11-20T15:16:31;17.20;35.70
21682;DHT22;11002;48.256;10.084;2022-11-20T15:18:58;17.30;35.80
21682;DHT22;11002;48.256;10.084;2022-11-20T15:21:27;17.20;35.70
21682;DHT22;11002;48.256;10.084;2022-11-20T15:23:57;17.20;35.70
21682;DHT22;11002;48.256;10.084;2022-11-20T15:26:27;17.20;35.70
21682;DHT22;11002;48.256;10.084;2022-11-20T15:28:54;17.20;35.70
21682;DHT22;11002;48.256;10.084;2022-11-20T15:31:23;17.20;35.70
21682;DHT22;11002;48.256;10.084;2022-11-20T15:33:52;17.20;35.80
21682;DHT22;11002;48.256;10.084;2022-11-20T15:36:19;17.20;35.80
21682;DHT22;11002;48.256;10.084;2022-11-20T15:38:46;17.20;35.80
21682;DHT22;11002;48.256;10.084;2022-11-20T15:41:14;17.20;35.70
21682;DHT22;11002;48.256;10.084;2022-11-20T15:43:41;17.20;35.70
21682;DHT22;11002;48.256;10.084;2022-11-20T15:46:11;17.30;35.80
21682;DHT22;11002;48.256;10.084;2022-11-20T15:48:42;17.20;35.70